sensor_id;sensor_type;location;lat;lon;timestamp;pressure;altitude;pressure_sealevel;temperature;humidity
70217;BME280;65567;55.684;37.570;2023-07-02T00:00:30;97478.63;;;21.13;59.46
70217;BME280;65567;55.684;37.570;2023-07-02T00:02:55;97478.91;;;21.04;59.65
70217;BME280;65567;55.684;37.570;2023-07-02T00:05:21;97485.25;;;21.03;59.70
70217;BME280;65567;55.684;37.570;2023-07-02T00:07:47;97484.97;;;20.98;60.05
70217;BME280;65567;55.684;37.570;2023-07-02T00:10:13;97484.66;;;20.86;60.26
70217;BME280;65567;55.684;37.570;2023-07-02T00:12:38;97489.06;;;20.78;60.72
70217;BME280;65567;55.684;37.570;2023-07-02T00:15:04;97490.34;;;20.83;60.59
70217;BME280;65567;55.684;37.570;2023-07-02T00:17:30;97494.03;;;20.82;60.73
70217;BME280;65567;55.684;37.570;2023-07-02T00:19:56;97492.63;;;20.86;60.67
70217;BME280;65567;55.684;37.570;2023-07-02T00:22:21;97490.72;;;20.79;60.80
70217;BME280;65567;55.684;37.570;2023-07-02T00:24:48;97490.81;;;20.71;61.22
70217;BME280;65567;55.684;37.570;2023-07-02T00:27:15;97493.84;;;20.68;61.19
70217;BME280;65567;55.684;37.570;2023-07-02T00:29:41;97477.41;;;20.64;61.46
70217;BME280;65567;55.684;37.570;2023-07-02T00:32:07;97487.59;;;20.61;61.69
70217;BME280;65567;55.684;37.570;2023-07-02T00:34:32;97488.59;;;20.60;61.66
70217;BME280;65567;55.684;37.570;2023-07-02T00:36:58;97493.03;;;20.53;61.93
70217;BME280;65567;55.684;37.570;2023-07-02T00:39:24;97493.22;;;20.51;61.96
70217;BME280;65567;55.684;37.570;2023-07-02T00:41:49;97498.06;;;20.47;62.36
70217;BME280;65567;55.684;37.570;2023-07-02T00:44:15;97491.47;;;20.43;62.43
70217;BME280;65567;55.684;37.570;2023-07-02T00:46:41;97491.00;;;20.40;62.72
70217;BME280;65567;55.684;37.570;2023-07-02T00:49:08;97493.75;;;20.32;63.06
70217;BME280;65567;55.684;37.570;2023-07-02T00:51:35;97498.25;;;20.31;63.06
70217;BME280;65567;55.684;37.570;2023-07-02T00:54:00;97503.94;;;20.28;63.34
70217;BME280;65567;55.684;37.570;2023-07-02T00:56:26;97502.94;;;20.29;63.38
70217;BME280;65567;55.684;37.570;2023-07-02T00:58:55;97512.25;;;20.25;63.48
70217;BME280;65567;55.684;37.570;2023-07-02T01:01:25;97511.72;;;20.29;63.33
70217;BME280;65567;55.684;37.570;2023-07-02T01:03:55;97512.19;;;20.33;63.42
70217;BME280;65567;55.684;37.570;2023-07-02T01:06:26;97509.25;;;20.28;63.70
70217;BME280;65567;55.684;37.570;2023-07-02T01:08:57;97508.88;;;20.31;63.55
70217;BME280;65567;55.684;37.570;2023-07-02T01:11:48;97514.13;;;20.39;63.47
70217;BME280;65567;55.684;37.570;2023-07-02T01:14:25;97519.31;;;20.33;63.56
70217;BME280;65567;55.684;37.570;2023-07-02T01:16:52;97511.72;;;20.29;63.83
70217;BME280;65567;55.684;37.570;2023-07-02T01:19:22;97513.84;;;20.34;63.91
70217;BME280;65567;55.684;37.570;2023-07-02T01:21:51;97509.81;;;20.38;63.81
70217;BME280;65567;55.684;37.570;2023-07-02T01:24:17;97506.22;;;20.46;63.58
70217;BME280;65567;55.684;37.570;2023-07-02T01:26:43;97516.97;;;20.53;63.27
70217;BME280;65567;55.684;37.570;2023-07-02T01:29:14;97516.78;;;20.69;63.05
70217;BME280;65567;55.684;37.570;2023-07-02T01:31:40;97513.22;;;20.77;62.86
70217;BME280;65567;55.684;37.570;2023-07-02T01:34:06;97513.91;;;21.01;62.11
70217;BME280;65567;55.684;37.570;2023-07-02T01:36:33;97516.50;;;21.16;61.72
70217;BME280;65567;55.684;37.570;2023-07-02T01:38:59;97515.91;;;21.35;61.07
70217;BME280;65567;55.684;37.570;2023-07-02T01:41:25;97527.31;;;21.51;60.71
70217;BME280;65567;55.684;37.570;2023-07-02T01:43:50;97515.63;;;21.67;60.01
70217;BME280;65567;55.684;37.570;2023-07-02T01:46:16;97514.59;;;21.68;59.95
70217;BME280;65567;55.684;37.570;2023-07-02T01:48:42;97514.28;;;21.77;59.37
70217;BME280;65567;55.684;37.570;2023-07-02T01:51:07;97515.09;;;21.78;59.27
70217;BME280;65567;55.684;37.570;2023-07-02T01:53:33;97522.53;;;21.83;59.15
70217;BME280;65567;55.684;37.570;2023-07-02T01:55:59;97520.13;;;21.88;59.18
70217;BME280;65567;55.684;37.570;2023-07-02T01:58:25;97521.13;;;21.87;58.80
70217;BME280;65567;55.684;37.570;2023-07-02T02:00:50;97514.66;;;21.74;59.10
70217;BME280;65567;55.684;37.570;2023-07-02T02:03:16;97524.34;;;21.82;59.04
70217;BME280;65567;55.684;37.570;2023-07-02T02:05:42;97520.31;;;21.86;58.99
70217;BME280;65567;55.684;37.570;2023-07-02T02:08:07;97535.19;;;22.02;58.31
70217;BME280;65567;55.684;37.570;2023-07-02T02:10:33;97532.78;;;22.07;58.18
70217;BME280;65567;55.684;37.570;2023-07-02T02:12:59;97530.38;;;21.91;58.45
70217;BME280;65567;55.684;37.570;2023-07-02T02:15:25;97535.72;;;21.91;58.50
70217;BME280;65567;55.684;37.570;2023-07-02T02:17:50;97524.63;;;22.16;58.41
70217;BME280;65567;55.684;37.570;2023-07-02T02:20:16;97519.56;;;22.27;57.72
70217;BME280;65567;55.684;37.570;2023-07-02T02:22:42;97516.81;;;22.36;57.41
70217;BME280;65567;55.684;37.570;2023-07-02T02:25:08;97516.56;;;22.66;57.07
70217;BME280;65567;55.684;37.570;2023-07-02T02:27:34;97517.38;;;23.15;55.71
70217;BME280;65567;55.684;37.570;2023-07-02T02:30:28;97504.94;;;23.62;54.33
70217;BME280;65567;55.684;37.570;2023-07-02T02:33:08;97520.38;;;24.14;53.39
70217;BME280;65567;55.684;37.570;2023-07-02T02:35:34;97516.41;;;24.50;52.24
70217;BME280;65567;55.684;37.570;2023-07-02T02:38:03;97516.75;;;24.87;51.32
70217;BME280;65567;55.684;37.570;2023-07-02T02:40:29;97520.31;;;25.19;50.38
70217;BME280;65567;55.684;37.570;2023-07-02T02:42:55;97527.28;;;25.27;49.77
70217;BME280;65567;55.684;37.570;2023-07-02T02:45:21;97534.94;;;25.55;49.08
70217;BME280;65567;55.684;37.570;2023-07-02T02:47:47;97525.75;;;25.77;48.31
70217;BME280;65567;55.684;37.570;2023-07-02T02:50:13;97529.47;;;26.01;47.95
70217;BME280;65567;55.684;37.570;2023-07-02T02:52:39;97529.59;;;26.13;47.52
70217;BME280;65567;55.684;37.570;2023-07-02T02:55:06;97532.06;;;26.14;47.46
70217;BME280;65567;55.684;37.570;2023-07-02T02:57:33;97530.50;;;26.07;47.45
70217;BME280;65567;55.684;37.570;2023-07-02T02:59:59;97538.94;;;26.03;47.54
70217;BME280;65567;55.684;37.570;2023-07-02T03:02:25;97539.50;;;25.87;47.71
70217;BME280;65567;55.684;37.570;2023-07-02T03:04:51;97538.13;;;25.46;48.27
70217;BME280;65567;55.684;37.570;2023-07-02T03:07:17;97537.28;;;25.06;49.24
70217;BME280;65567;55.684;37.570;2023-07-02T03:09:43;97539.25;;;24.72;49.67
70217;BME280;65567;55.684;37.570;2023-07-02T03:12:09;97541.53;;;24.49;50.46
70217;BME280;65567;55.684;37.570;2023-07-02T03:14:34;97542.59;;;24.28;51.12
70217;BME280;65567;55.684;37.570;2023-07-02T03:17:00;97540.16;;;24.13;51.14
70217;BME280;65567;55.684;37.570;2023-07-02T03:19:26;97549.81;;;23.94;51.80
70217;BME280;65567;55.684;37.570;2023-07-02T03:21:52;97553.06;;;23.62;52.62
70217;BME280;65567;55.684;37.570;2023-07-02T03:24:17;97561.63;;;23.37;53.30
70217;BME280;65567;55.684;37.570;2023-07-02T03:26:44;97552.47;;;23.12;54.03
70217;BME280;65567;55.684;37.570;2023-07-02T03:29:10;97557.19;;;23.09;54.32
70217;BME280;65567;55.684;37.570;2023-07-02T03:31:37;97557.78;;;23.05;54.36
70217;BME280;65567;55.684;37.570;2023-07-02T03:34:07;97562.66;;;22.88;54.85
70217;BME280;65567;55.684;37.570;2023-07-02T03:36:33;97561.22;;;22.92;54.94
70217;BME280;65567;55.684;37.570;2023-07-02T03:38:59;97562.66;;;22.88;54.60
70217;BME280;65567;55.684;37.570;2023-07-02T03:41:25;97558.75;;;22.84;54.62
70217;BME280;65567;55.684;37.570;2023-07-02T03:43:50;97560.72;;;22.68;55.00
70217;BME280;65567;55.684;37.570;2023-07-02T03:46:16;97565.13;;;22.54;55.23
70217;BME280;65567;55.684;37.570;2023-07-02T03:48:42;97566.59;;;22.57;55.49
70217;BME280;65567;55.684;37.570;2023-07-02T03:51:08;97567.56;;;22.84;55.09
70217;BME280;65567;55.684;37.570;2023-07-02T03:53:33;97571.88;;;23.20;54.10
70217;BME280;65567;55.684;37.570;2023-07-02T03:55:59;97566.34;;;23.42;53.51
70217;BME280;65567;55.684;37.570;2023-07-02T03:58:25;97566.59;;;23.54;52.97
70217;BME280;65567;55.684;37.570;2023-07-02T04:00:51;97573.41;;;23.63;52.70
70217;BME280;65567;55.684;37.570;2023-07-02T04:03:17;97567.88;;;23.71;52.50
70217;BME280;65567;55.684;37.570;2023-07-02T04:05:43;97571.03;;;24.22;51.38
70217;BME280;65567;55.684;37.570;2023-07-02T04:08:09;97579.00;;;24.76;50.36
70217;BME280;65567;55.684;37.570;2023-07-02T04:10:35;97586.53;;;25.05;49.32
70217;BME280;65567;55.684;37.570;2023-07-02T04:13:01;97579.22;;;25.26;48.74
70217;BME280;65567;55.684;37.570;2023-07-02T04:15:27;97581.66;;;25.34;48.02
70217;BME280;65567;55.684;37.570;2023-07-02T04:17:53;97574.47;;;25.28;47.79
70217;BME280;65567;55.684;37.570;2023-07-02T04:20:19;97574.28;;;25.30;47.87
70217;BME280;65567;55.684;37.570;2023-07-02T04:22:45;97592.22;;;25.68;47.15
70217;BME280;65567;55.684;37.570;2023-07-02T04:25:12;97586.13;;;26.18;46.22
70217;BME280;65567;55.684;37.570;2023-07-02T04:27:41;97589.28;;;26.59;45.04
70217;BME280;65567;55.684;37.570;2023-07-02T04:30:08;97586.84;;;27.13;44.13
70217;BME280;65567;55.684;37.570;2023-07-02T04:32:36;97586.91;;;27.74;42.82
70217;BME280;65567;55.684;37.570;2023-07-02T04:35:01;97582.34;;;28.16;42.12
70217;BME280;65567;55.684;37.570;2023-07-02T04:37:27;97587.28;;;28.31;41.46
70217;BME280;65567;55.684;37.570;2023-07-02T04:39:54;97590.91;;;28.25;41.30
70217;BME280;65567;55.684;37.570;2023-07-02T04:42:20;97593.47;;;28.08;41.75
70217;BME280;65567;55.684;37.570;2023-07-02T04:44:46;97596.59;;;28.17;41.42
70217;BME280;65567;55.684;37.570;2023-07-02T04:47:11;97598.97;;;27.83;41.63
70217;BME280;65567;55.684;37.570;2023-07-02T04:49:38;97596.69;;;27.56;42.69
70217;BME280;65567;55.684;37.570;2023-07-02T04:52:04;97602.78;;;27.63;42.47
70217;BME280;65567;55.684;37.570;2023-07-02T04:54:31;97595.50;;;27.52;42.72
70217;BME280;65567;55.684;37.570;2023-07-02T04:56:56;97605.28;;;27.77;42.50
70217;BME280;65567;55.684;37.570;2023-07-02T04:59:24;97600.06;;;27.94;41.97
70217;BME280;65567;55.684;37.570;2023-07-02T05:01:50;97597.72;;;27.97;41.48
70217;BME280;65567;55.684;37.570;2023-07-02T05:04:15;97601.78;;;27.88;41.94
70217;BME280;65567;55.684;37.570;2023-07-02T05:06:41;97601.22;;;27.86;41.57
70217;BME280;65567;55.684;37.570;2023-07-02T05:09:07;97606.56;;;28.05;41.24
70217;BME280;65567;55.684;37.570;2023-07-02T05:11:33;97600.88;;;28.60;40.27
70217;BME280;65567;55.684;37.570;2023-07-02T05:13:58;97600.59;;;28.97;39.68
70217;BME280;65567;55.684;37.570;2023-07-02T05:16:24;97605.06;;;29.44;38.50
70217;BME280;65567;55.684;37.570;2023-07-02T05:18:50;97590.19;;;29.71;38.17
70217;BME280;65567;55.684;37.570;2023-07-02T05:21:19;97599.81;;;29.66;38.16
70217;BME280;65567;55.684;37.570;2023-07-02T05:23:45;97603.22;;;29.45;38.82
70217;BME280;65567;55.684;37.570;2023-07-02T05:26:10;97601.66;;;29.49;38.29
70217;BME280;65567;55.684;37.570;2023-07-02T05:28:36;97598.31;;;29.30;39.13
70217;BME280;65567;55.684;37.570;2023-07-02T05:31:02;97600.69;;;29.84;38.12
70217;BME280;65567;55.684;37.570;2023-07-02T05:33:27;97598.69;;;30.42;37.59
70217;BME280;65567;55.684;37.570;2023-07-02T05:35:53;97607.31;;;30.95;36.75
70217;BME280;65567;55.684;37.570;2023-07-02T05:38:19;97608.34;;;31.11;35.72
70217;BME280;65567;55.684;37.570;2023-07-02T05:40:45;97607.41;;;31.23;35.55
70217;BME280;65567;55.684;37.570;2023-07-02T05:43:11;97611.84;;;31.12;35.21
70217;BME280;65567;55.684;37.570;2023-07-02T05:45:37;97604.84;;;31.33;35.39
70217;BME280;65567;55.684;37.570;2023-07-02T05:48:03;97603.09;;;31.71;34.76
70217;BME280;65567;55.684;37.570;2023-07-02T05:50:28;97599.00;;;31.96;34.89
70217;BME280;65567;55.684;37.570;2023-07-02T05:52:54;97606.56;;;32.26;34.07
70217;BME280;65567;55.684;37.570;2023-07-02T05:55:20;97604.06;;;32.52;32.85
70217;BME280;65567;55.684;37.570;2023-07-02T05:57:46;97605.34;;;32.44;33.19
70217;BME280;65567;55.684;37.570;2023-07-02T06:00:12;97601.00;;;32.81;32.90
70217;BME280;65567;55.684;37.570;2023-07-02T06:02:38;97610.47;;;33.26;32.36
70217;BME280;65567;55.684;37.570;2023-07-02T06:05:04;97602.97;;;33.65;31.59
70217;BME280;65567;55.684;37.570;2023-07-02T06:07:30;97604.66;;;33.81;30.86
70217;BME280;65567;55.684;37.570;2023-07-02T06:09:56;97608.97;;;33.77;30.68
70217;BME280;65567;55.684;37.570;2023-07-02T06:12:21;97607.38;;;33.86;30.81
70217;BME280;65567;55.684;37.570;2023-07-02T06:14:48;97610.53;;;33.47;30.78
70217;BME280;65567;55.684;37.570;2023-07-02T06:17:14;97613.19;;;33.32;31.18
70217;BME280;65567;55.684;37.570;2023-07-02T06:19:40;97607.97;;;33.25;31.46
70217;BME280;65567;55.684;37.570;2023-07-02T06:22:06;97610.13;;;33.23;31.32
70217;BME280;65567;55.684;37.570;2023-07-02T06:24:32;97610.03;;;32.92;31.25
70217;BME280;65567;55.684;37.570;2023-07-02T06:26:58;97613.38;;;32.72;31.32
70217;BME280;65567;55.684;37.570;2023-07-02T06:29:23;97611.84;;;32.43;31.70
70217;BME280;65567;55.684;37.570;2023-07-02T06:31:50;97608.84;;;32.07;31.86
70217;BME280;65567;55.684;37.570;2023-07-02T06:34:16;97614.19;;;32.29;32.22
70217;BME280;65567;55.684;37.570;2023-07-02T06:36:42;97615.16;;;32.51;31.83
70217;BME280;65567;55.684;37.570;2023-07-02T06:39:08;97610.03;;;32.92;31.35
70217;BME280;65567;55.684;37.570;2023-07-02T06:41:35;97615.13;;;33.41;29.59
70217;BME280;65567;55.684;37.570;2023-07-02T06:44:01;97615.53;;;33.91;29.17
70217;BME280;65567;55.684;37.570;2023-07-02T06:46:27;97611.75;;;34.13;28.92
70217;BME280;65567;55.684;37.570;2023-07-02T06:48:53;97609.84;;;34.50;28.44
70217;BME280;65567;55.684;37.570;2023-07-02T06:51:18;97617.72;;;34.62;28.07
70217;BME280;65567;55.684;37.570;2023-07-02T06:53:46;97614.47;;;34.18;28.34
70217;BME280;65567;55.684;37.570;2023-07-02T06:56:11;97614.38;;;33.77;28.72
70217;BME280;65567;55.684;37.570;2023-07-02T06:58:39;97613.41;;;33.25;29.59
70217;BME280;65567;55.684;37.570;2023-07-02T07:01:05;97616.03;;;32.61;30.49
70217;BME280;65567;55.684;37.570;2023-07-02T07:03:34;97616.81;;;31.92;31.62
70217;BME280;65567;55.684;37.570;2023-07-02T07:06:00;97620.47;;;31.53;32.49
70217;BME280;65567;55.684;37.570;2023-07-02T07:08:25;97615.44;;;31.62;31.89
70217;BME280;65567;55.684;37.570;2023-07-02T07:10:51;97617.56;;;31.60;31.52
70217;BME280;65567;55.684;37.570;2023-07-02T07:13:17;97611.38;;;31.87;30.84
70217;BME280;65567;55.684;37.570;2023-07-02T07:15:43;97625.44;;;31.61;30.97
70217;BME280;65567;55.684;37.570;2023-07-02T07:18:09;97624.31;;;31.35;31.42
70217;BME280;65567;55.684;37.570;2023-07-02T07:20:35;97632.88;;;31.05;32.14
70217;BME280;65567;55.684;37.570;2023-07-02T07:23:04;97641.50;;;30.68;32.49
70217;BME280;65567;55.684;37.570;2023-07-02T07:25:30;97637.31;;;30.43;32.62
70217;BME280;65567;55.684;37.570;2023-07-02T07:27:57;97628.06;;;29.88;32.94
70217;BME280;65567;55.684;37.570;2023-07-02T07:30:23;97638.59;;;29.60;33.82
70217;BME280;65567;55.684;37.570;2023-07-02T07:32:50;97636.84;;;29.54;34.32
70217;BME280;65567;55.684;37.570;2023-07-02T07:35:16;97636.16;;;29.88;33.79
70217;BME280;65567;55.684;37.570;2023-07-02T07:37:42;97642.09;;;30.19;33.05
70217;BME280;65567;55.684;37.570;2023-07-02T07:40:08;97641.94;;;30.25;32.87
70217;BME280;65567;55.684;37.570;2023-07-02T07:42:34;97639.88;;;30.32;32.70
70217;BME280;65567;55.684;37.570;2023-07-02T07:45:00;97638.72;;;30.28;33.14
70217;BME280;65567;55.684;37.570;2023-07-02T07:47:25;97636.34;;;30.15;33.06
70217;BME280;65567;55.684;37.570;2023-07-02T07:49:51;97637.66;;;30.12;33.46
70217;BME280;65567;55.684;37.570;2023-07-02T07:52:17;97632.25;;;30.12;33.91
70217;BME280;65567;55.684;37.570;2023-07-02T07:54:42;97632.91;;;30.37;33.27
70217;BME280;65567;55.684;37.570;2023-07-02T07:57:08;97637.03;;;30.73;32.84
70217;BME280;65567;55.684;37.570;2023-07-02T07:59:34;97629.28;;;31.21;32.03
70217;BME280;65567;55.684;37.570;2023-07-02T08:02:00;97624.97;;;31.65;32.10
70217;BME280;65567;55.684;37.570;2023-07-02T08:04:26;97630.16;;;31.99;31.40
70217;BME280;65567;55.684;37.570;2023-07-02T08:06:51;97624.22;;;32.02;30.61
70217;BME280;65567;55.684;37.570;2023-07-02T08:09:17;97622.28;;;31.97;29.69
70217;BME280;65567;55.684;37.570;2023-07-02T08:11:43;97630.59;;;31.85;29.09
70217;BME280;65567;55.684;37.570;2023-07-02T08:14:08;97629.59;;;31.47;29.65
70217;BME280;65567;55.684;37.570;2023-07-02T08:16:34;97643.06;;;31.20;30.14
70217;BME280;65567;55.684;37.570;2023-07-02T08:19:01;97642.94;;;31.09;30.87
70217;BME280;65567;55.684;37.570;2023-07-02T08:21:27;97641.00;;;31.05;30.94
70217;BME280;65567;55.684;37.570;2023-07-02T08:23:52;97650.31;;;31.14;31.31
70217;BME280;65567;55.684;37.570;2023-07-02T08:26:18;97638.50;;;31.20;31.50
70217;BME280;65567;55.684;37.570;2023-07-02T08:28:44;97635.63;;;31.54;31.15
70217;BME280;65567;55.684;37.570;2023-07-02T08:31:10;97631.06;;;31.82;30.72
70217;BME280;65567;55.684;37.570;2023-07-02T08:33:35;97632.88;;;31.99;30.08
70217;BME280;65567;55.684;37.570;2023-07-02T08:36:01;97633.63;;;31.94;29.19
70217;BME280;65567;55.684;37.570;2023-07-02T08:38:27;97635.84;;;31.47;30.13
70217;BME280;65567;55.684;37.570;2023-07-02T08:40:52;97627.41;;;31.44;30.07
70217;BME280;65567;55.684;37.570;2023-07-02T08:43:18;97637.91;;;31.18;30.25
70217;BME280;65567;55.684;37.570;2023-07-02T08:45:44;97636.59;;;31.21;30.47
70217;BME280;65567;55.684;37.570;2023-07-02T08:48:11;97645.22;;;31.40;30.04
70217;BME280;65567;55.684;37.570;2023-07-02T08:50:37;97654.53;;;31.49;29.50
70217;BME280;65567;55.684;37.570;2023-07-02T08:53:02;97646.72;;;31.53;29.46
70217;BME280;65567;55.684;37.570;2023-07-02T08:55:28;97635.44;;;31.61;29.03
70217;BME280;65567;55.684;37.570;2023-07-02T08:57:57;97635.47;;;31.88;29.13
70217;BME280;65567;55.684;37.570;2023-07-02T09:00:28;97645.66;;;32.36;28.37
70217;BME280;65567;55.684;37.570;2023-07-02T09:02:56;97632.16;;;32.41;28.11
70217;BME280;65567;55.684;37.570;2023-07-02T09:05:22;97643.75;;;32.69;27.48
70217;BME280;65567;55.684;37.570;2023-07-02T09:07:49;97637.38;;;32.85;27.27
70217;BME280;65567;55.684;37.570;2023-07-02T09:10:29;97640.44;;;33.04;27.26
70217;BME280;65567;55.684;37.570;2023-07-02T09:13:07;97646.72;;;33.15;26.57
70217;BME280;65567;55.684;37.570;2023-07-02T09:15:40;97645.94;;;32.72;27.17
70217;BME280;65567;55.684;37.570;2023-07-02T09:18:19;97644.50;;;32.26;27.60
70217;BME280;65567;55.684;37.570;2023-07-02T09:20:45;97653.47;;;32.00;28.34
70217;BME280;65567;55.684;37.570;2023-07-02T09:23:12;97652.19;;;32.07;28.82
70217;BME280;65567;55.684;37.570;2023-07-02T09:25:38;97651.84;;;32.26;28.39
70217;BME280;65567;55.684;37.570;2023-07-02T09:28:18;97650.88;;;32.42;28.26
70217;BME280;65567;55.684;37.570;2023-07-02T09:30:55;97656.50;;;32.36;28.43
70217;BME280;65567;55.684;37.570;2023-07-02T09:33:25;97642.53;;;32.49;28.28
70217;BME280;65567;55.684;37.570;2023-07-02T09:35:51;97642.31;;;32.56;27.55
70217;BME280;65567;55.684;37.570;2023-07-02T09:38:21;97641.69;;;32.16;27.15
70217;BME280;65567;55.684;37.570;2023-07-02T09:40:49;97644.34;;;31.84;27.52
70217;BME280;65567;55.684;37.570;2023-07-02T09:43:16;97643.13;;;31.96;26.81
70217;BME280;65567;55.684;37.570;2023-07-02T09:45:47;97641.91;;;32.09;26.37
70217;BME280;65567;55.684;37.570;2023-07-02T09:48:13;97637.56;;;31.81;26.32
70217;BME280;65567;55.684;37.570;2023-07-02T09:50:44;97644.69;;;31.43;26.37
70217;BME280;65567;55.684;37.570;2023-07-02T09:53:11;97644.09;;;31.36;27.20
70217;BME280;65567;55.684;37.570;2023-07-02T09:55:41;97644.97;;;31.41;27.25
70217;BME280;65567;55.684;37.570;2023-07-02T09:58:07;97647.34;;;31.38;27.85
70217;BME280;65567;55.684;37.570;2023-07-02T10:00:33;97654.53;;;31.49;27.45
70217;BME280;65567;55.684;37.570;2023-07-02T10:02:59;97645.28;;;31.67;27.80
70217;BME280;65567;55.684;37.570;2023-07-02T10:05:32;97643.88;;;31.87;26.58
70217;BME280;65567;55.684;37.570;2023-07-02T10:08:16;97641.59;;;32.06;27.70
70217;BME280;65567;55.684;37.570;2023-07-02T10:10:46;97640.06;;;32.15;26.30
70217;BME280;65567;55.684;37.570;2023-07-02T10:13:12;97643.78;;;32.09;25.94
70217;BME280;65567;55.684;37.570;2023-07-02T10:15:38;97651.72;;;31.88;26.17
70217;BME280;65567;55.684;37.570;2023-07-02T10:18:05;97641.53;;;31.73;26.47
70217;BME280;65567;55.684;37.570;2023-07-02T10:20:41;97636.84;;;31.63;26.71
70217;BME280;65567;55.684;37.570;2023-07-02T10:23:09;97636.34;;;31.67;27.04
70217;BME280;65567;55.684;37.570;2023-07-02T10:25:36;97649.72;;;31.56;27.79
70217;BME280;65567;55.684;37.570;2023-07-02T10:28:20;97644.88;;;31.58;27.63
70217;BME280;65567;55.684;37.570;2023-07-02T10:30:47;97652.88;;;31.48;27.50
70217;BME280;65567;55.684;37.570;2023-07-02T10:33:17;97647.47;;;31.48;28.03
70217;BME280;65567;55.684;37.570;2023-07-02T10:35:49;97658.41;;;31.14;28.34
70217;BME280;65567;55.684;37.570;2023-07-02T10:38:20;97656.59;;;31.03;28.51
70217;BME280;65567;55.684;37.570;2023-07-02T10:40:46;97652.63;;;30.88;29.17
70217;BME280;65567;55.684;37.570;2023-07-02T10:43:12;97653.00;;;30.58;29.23
70217;BME280;65567;55.684;37.570;2023-07-02T10:45:38;97656.81;;;30.45;29.87
70217;BME280;65567;55.684;37.570;2023-07-02T10:48:08;97650.66;;;30.15;30.52
70217;BME280;65567;55.684;37.570;2023-07-02T10:50:34;97662.34;;;30.04;30.45
70217;BME280;65567;55.684;37.570;2023-07-02T10:53:00;97664.78;;;29.89;30.93
70217;BME280;65567;55.684;37.570;2023-07-02T10:55:26;97669.81;;;29.85;30.94
70217;BME280;65567;55.684;37.570;2023-07-02T10:58:04;97665.38;;;29.79;31.43
70217;BME280;65567;55.684;37.570;2023-07-02T11:00:30;97663.16;;;29.76;31.10
70217;BME280;65567;55.684;37.570;2023-07-02T11:02:58;97666.47;;;29.66;30.98
70217;BME280;65567;55.684;37.570;2023-07-02T11:05:23;97661.88;;;29.66;31.49
70217;BME280;65567;55.684;37.570;2023-07-02T11:07:49;97667.38;;;29.43;31.44
70217;BME280;65567;55.684;37.570;2023-07-02T11:10:22;97667.38;;;29.43;31.63
70217;BME280;65567;55.684;37.570;2023-07-02T11:12:48;97663.41;;;29.33;31.25
70217;BME280;65567;55.684;37.570;2023-07-02T11:15:15;97670.06;;;29.43;31.41
70217;BME280;65567;55.684;37.570;2023-07-02T11:17:43;97667.84;;;29.40;31.19
70217;BME280;65567;55.684;37.570;2023-07-02T11:20:09;97671.59;;;29.39;30.63
70217;BME280;65567;55.684;37.570;2023-07-02T11:22:36;97664.34;;;29.27;30.67
70217;BME280;65567;55.684;37.570;2023-07-02T11:25:12;97666.59;;;29.30;31.09
70217;BME280;65567;55.684;37.570;2023-07-02T11:27:38;97669.16;;;29.25;30.24
70217;BME280;65567;55.684;37.570;2023-07-02T11:30:05;97666.44;;;29.25;30.02
70217;BME280;65567;55.684;37.570;2023-07-02T11:32:30;97670.09;;;29.31;29.90
70217;BME280;65567;55.684;37.570;2023-07-02T11:34:56;97666.91;;;29.22;30.08
70217;BME280;65567;55.684;37.570;2023-07-02T11:37:22;97665.84;;;29.23;29.75
70217;BME280;65567;55.684;37.570;2023-07-02T11:39:48;97673.03;;;29.29;29.76
70217;BME280;65567;55.684;37.570;2023-07-02T11:42:14;97670.47;;;29.11;29.92
70217;BME280;65567;55.684;37.570;2023-07-02T11:44:40;97674.09;;;29.05;30.11
70217;BME280;65567;55.684;37.570;2023-07-02T11:47:06;97675.03;;;29.10;29.69
70217;BME280;65567;55.684;37.570;2023-07-02T11:49:32;97664.84;;;29.00;29.73
70217;BME280;65567;55.684;37.570;2023-07-02T11:51:58;97676.44;;;28.89;30.02
70217;BME280;65567;55.684;37.570;2023-07-02T11:54:24;97662.84;;;28.96;29.94
70217;BME280;65567;55.684;37.570;2023-07-02T11:56:50;97670.56;;;28.92;29.88
70217;BME280;65567;55.684;37.570;2023-07-02T11:59:15;97671.19;;;28.94;29.77
70217;BME280;65567;55.684;37.570;2023-07-02T12:01:41;97670.47;;;29.11;29.92
70217;BME280;65567;55.684;37.570;2023-07-02T12:04:09;97672.69;;;29.02;29.98
70217;BME280;65567;55.684;37.570;2023-07-02T12:06:37;97676.69;;;28.88;29.49
70217;BME280;65567;55.684;37.570;2023-07-02T12:09:02;97669.03;;;28.49;29.43
70217;BME280;65567;55.684;37.570;2023-07-02T12:11:28;97677.19;;;28.30;29.54
70217;BME280;65567;55.684;37.570;2023-07-02T12:13:54;97667.50;;;28.41;29.62
70217;BME280;65567;55.684;37.570;2023-07-02T12:16:19;97668.66;;;28.57;29.71
70217;BME280;65567;55.684;37.570;2023-07-02T12:18:45;97662.13;;;28.65;29.69
70217;BME280;65567;55.684;37.570;2023-07-02T12:21:11;97659.00;;;28.80;29.91
70217;BME280;65567;55.684;37.570;2023-07-02T12:23:37;97666.72;;;28.88;29.82
70217;BME280;65567;55.684;37.570;2023-07-02T12:26:02;97660.97;;;28.84;29.92
70217;BME280;65567;55.684;37.570;2023-07-02T12:28:28;97663.66;;;28.84;28.98
70217;BME280;65567;55.684;37.570;2023-07-02T12:30:54;97657.84;;;28.76;28.90
70217;BME280;65567;55.684;37.570;2023-07-02T12:33:19;97670.03;;;28.66;29.38
70217;BME280;65567;55.684;37.570;2023-07-02T12:35:45;97671.28;;;28.64;29.10
70217;BME280;65567;55.684;37.570;2023-07-02T12:38:12;97674.56;;;28.66;29.43
70217;BME280;65567;55.684;37.570;2023-07-02T12:40:38;97669.31;;;28.71;29.35
70217;BME280;65567;55.684;37.570;2023-07-02T12:43:03;97667.44;;;28.72;28.07
70217;BME280;65567;55.684;37.570;2023-07-02T12:45:29;97669.53;;;28.70;28.09
70217;BME280;65567;55.684;37.570;2023-07-02T12:47:57;97671.19;;;28.71;28.63